Time;durP1;ratioP1;P1;durP2;ratioP2;P2;SDS_P1;SDS_P2;PMS_P1;PMS_P2;Temp;Humidity;BMP_temperature;BMP_pressure;BME280_temperature;BME280_humidity;BME280_pressure;Samples;Min_cycle;Max_cycle;Signal;HPM_P1;HPM_P2
2022/12/28 00:01:26;;;;;;;9.50;4.60;;;;;;;0.52;100.00;101293.25;4796206;29;20076;-78
2022/12/28 00:03:53;;;;;;;7.90;4.60;;;;;;;0.47;100.00;101292.22;4828704;29;20042;-78
2022/12/28 00:06:22;;;;;;;6.43;3.93;;;;;;;0.47;100.00;101296.53;4827272;29;20480;-79
2022/12/28 00:08:52;;;;;;;7.30;4.10;;;;;;;0.40;100.00;101285.06;4817801;29;20117;-80
2022/12/28 00:11:20;;;;;;;5.90;4.17;;;;;;;0.38;100.00;101285.84;4834769;29;20150;-79
2022/12/28 00:14:00;;;;;;;9.77;4.40;;;;;;;0.37;100.00;101287.56;4825200;29;20051;-79
2022/12/28 00:16:32;;;;;;;9.10;4.80;;;;;;;0.53;100.00;101288.91;4823746;29;20046;-81
2022/12/28 00:19:01;;;;;;;6.60;4.20;;;;;;;0.53;100.00;101271.59;4811382;29;20058;-79
2022/12/28 00:21:28;;;;;;;7.43;4.63;;;;;;;0.51;100.00;101270.69;4809182;29;20046;-80
2022/12/28 00:23:57;;;;;;;6.03;3.63;;;;;;;0.63;100.00;101277.94;4838531;29;20049;-79
2022/12/28 00:26:25;;;;;;;10.83;5.03;;;;;;;0.73;100.00;101276.50;4838858;29;20050;-79
2022/12/28 00:28:54;;;;;;;7.87;4.17;;;;;;;0.90;100.00;101271.78;4840285;29;20043;-79
2022/12/28 00:31:29;;;;;;;9.47;4.20;;;;;;;0.97;100.00;101272.00;4794107;29;20051;-79
2022/12/28 00:33:56;;;;;;;9.07;4.33;;;;;;;1.02;100.00;101264.34;4791180;29;20135;-79
2022/12/28 00:36:22;;;;;;;6.13;4.17;;;;;;;1.07;100.00;101257.53;4823255;29;20046;-80
2022/12/28 00:38:49;;;;;;;9.63;4.90;;;;;;;1.21;100.00;101260.50;4829987;29;20049;-80
2022/12/28 00:41:16;;;;;;;9.20;4.67;;;;;;;1.40;100.00;101262.75;4825648;29;20050;-80
2022/12/28 00:43:43;;;;;;;6.10;3.90;;;;;;;1.46;100.00;101257.72;4795493;29;20053;-80
2022/12/28 00:46:12;;;;;;;11.17;4.77;;;;;;;1.54;100.00;101257.91;4821547;29;20038;-80
2022/12/28 00:48:39;;;;;;;8.17;4.70;;;;;;;1.52;100.00;101251.78;4812079;29;20046;-80
2022/12/28 00:51:12;;;;;;;8.50;4.50;;;;;;;1.65;100.00;101244.31;4824407;29;20046;-79
2022/12/28 00:53:41;;;;;;;10.60;5.57;;;;;;;1.64;100.00;101239.94;4829694;29;20106;-79
2022/12/28 00:56:16;;;;;;;7.90;4.40;;;;;;;1.63;100.00;101251.22;4825409;29;20049;-80
2022/12/28 00:58:43;;;;;;;8.73;5.03;;;;;;;1.80;100.00;101253.34;4829577;29;20111;-81
2022/12/28 01:01:13;;;;;;;7.07;4.23;;;;;;;1.73;100.00;101260.13;4814074;29;20509;-81
2022/12/28 01:03:40;;;;;;;9.23;4.60;;;;;;;1.85;100.00;101256.94;4814679;29;20042;-80
2022/12/28 01:06:11;;;;;;;6.83;4.00;;;;;;;1.88;100.00;101257.91;4835357;29;20053;-79
2022/12/28 01:08:39;;;;;;;10.13;4.73;;;;;;;1.93;100.00;101242.38;4809445;29;20050;-79
2022/12/28 01:11:07;;;;;;;8.73;4.90;;;;;;;2.05;100.00;101223.56;4839416;29;20790;-80
2022/12/28 01:13:34;;;;;;;9.70;4.20;;;;;;;2.07;100.00;101227.94;4825176;29;20050;-80
2022/12/28 01:16:09;;;;;;;9.30;4.43;;;;;;;2.09;100.00;101226.25;4808397;29;20057;-79
2022/12/28 01:18:35;;;;;;;11.60;5.23;;;;;;;2.12;100.00;101220.25;4826140;29;20935;-81
2022/12/28 01:21:16;;;;;;;14.07;5.27;;;;;;;2.22;100.00;101219.59;4848471;29;20054;-79
2022/12/28 01:23:45;;;;;;;11.73;4.30;;;;;;;2.19;100.00;101223.03;4830603;29;20351;-78
2022/12/28 01:26:13;;;;;;;9.93;4.33;;;;;;;2.22;100.00;101217.88;4815339;29;20107;-80
2022/12/28 01:28:39;;;;;;;9.23;4.10;;;;;;;2.21;100.00;101218.72;4828539;29;20065;-79
2022/12/28 01:31:11;;;;;;;9.60;5.00;;;;;;;2.38;100.00;101213.88;4810935;29;20095;-80
2022/12/28 01:33:38;;;;;;;7.03;3.97;;;;;;;2.40;100.00;101209.56;4827709;29;20065;-80
2022/12/28 01:36:16;;;;;;;6.97;3.90;;;;;;;2.43;100.00;101203.53;4823903;29;20043;-80
2022/12/28 01:38:43;;;;;;;7.10;4.03;;;;;;;2.39;100.00;101204.34;4819267;29;20045;-80
2022/12/28 01:41:13;;;;;;;7.17;3.80;;;;;;;2.46;100.00;101209.72;4830356;29;20104;-80
2022/12/28 01:43:42;;;;;;;6.30;4.17;;;;;;;2.46;100.00;101203.63;4816746;29;20038;-79
2022/12/28 01:46:41;;;;;;;9.87;4.77;;;;;;;2.52;100.00;101190.69;4829625;29;20046;-80
2022/12/28 01:49:52;;;;;;;10.53;4.90;;;;;;;2.62;100.00;101181.34;4823458;29;20179;-81
2022/12/28 01:52:32;;;;;;;7.37;4.30;;;;;;;2.61;100.00;101174.38;4815953;29;20051;-79
2022/12/28 01:55:10;;;;;;;6.57;3.57;;;;;;;2.68;100.00;101176.22;4821273;29;20103;-80
2022/12/28 01:57:43;;;;;;;7.67;3.70;;;;;;;2.68;100.00;101176.22;4821718;29;20039;-80
2022/12/28 02:00:14;;;;;;;7.70;4.07;;;;;;;2.77;100.00;101171.19;4821775;29;20137;-80
2022/12/28 02:03:04;;;;;;;5.50;3.73;;;;;;;2.71;100.00;101158.94;4824991;29;20515;-79
2022/12/28 02:05:38;;;;;;;7.10;4.07;;;;;;;2.82;100.00;101153.91;4822052;29;20187;-80
2022/12/28 02:08:19;;;;;;;7.30;4.15;;;;;;;2.92;100.00;101147.13;4836681;29;20051;-80
2022/12/28 02:10:46;;;;;;;8.73;3.87;;;;;;;2.94;100.00;101142.78;4835517;29;20038;-80
2022/12/28 02:13:14;;;;;;;6.97;3.90;;;;;;;2.94;100.00;101133.22;4833705;29;20489;-80
2022/12/28 02:15:42;;;;;;;7.87;4.27;;;;;;;2.99;100.00;101122.88;4824910;29;20054;-80
2022/12/28 02:18:09;;;;;;;5.43;3.60;;;;;;;2.91;100.00;101127.97;4809929;29;20453;-81
2022/12/28 02:20:58;;;;;;;6.23;3.43;;;;;;;3.05;100.00;101117.78;4828950;29;20099;-80
2022/12/28 02:24:03;;;;;;;5.77;3.70;;;;;;;3.03;100.00;101102.09;4811934;29;20187;-80
2022/12/28 02:27:02;;;;;;;6.45;3.78;;;;;;;3.04;100.00;101096.03;4810279;29;20047;-80
2022/12/28 02:29:47;;;;;;;9.50;3.53;;;;;;;2.98;100.00;101088.09;4816842;29;20045;-80
2022/12/28 02:32:41;;;;;;;6.60;3.73;;;;;;;2.94;100.00;101088.00;4797168;29;20054;-81
2022/12/28 02:35:38;;;;;;;14.30;4.30;;;;;;;3.07;100.00;101067.34;4839035;29;20038;-80
2022/12/28 02:38:13;;;;;;;6.47;3.37;;;;;;;3.00;100.00;101067.22;4826163;29;20402;-81
2022/12/28 02:40:48;;;;;;;6.77;3.23;;;;;;;2.97;100.00;101059.34;4838746;29;20045;-81
2022/12/28 02:43:15;;;;;;;5.10;3.13;;;;;;;2.98;100.00;101054.16;4849025;29;20046;-80
2022/12/28 02:51:47;;;;;;;8.17;3.47;;;;;;;3.01;100.00;101037.66;4834150;29;20102;-80
2022/12/28 02:57:41;;;;;;;6.78;3.47;;;;;;;2.88;100.00;101023.53;4809787;29;20038;-80
2022/12/28 03:00:14;;;;;;;6.67;3.43;;;;;;;2.80;100.00;101020.81;4797239;29;20061;-81
2022/12/28 03:02:55;;;;;;;4.80;3.20;;;;;;;2.74;100.00;101005.03;4840970;29;20046;-80
2022/12/28 03:08:52;;;;;;;7.67;4.13;;;;;;;2.92;100.00;101000.97;4826581;29;20035;-80
2022/12/28 03:11:22;;;;;;;4.03;2.83;;;;;;;2.86;100.00;100999.16;4820246;29;20055;-79
2022/12/28 03:13:56;;;;;;;8.97;3.20;;;;;;;2.78;100.00;100993.81;4809341;29;20445;-80
2022/12/28 03:25:41;;;;;;;5.40;2.92;;;;;;;2.82;100.00;100979.06;4834038;29;20046;-81
2022/12/28 03:33:17;;;;;;;5.13;3.70;;;;;;;2.85;100.00;100960.84;4812378;29;20130;-80
2022/12/28 03:35:54;;;;;;;4.73;2.60;;;;;;;2.87;100.00;100961.78;4825473;29;20038;-80
2022/12/28 03:38:27;;;;;;;8.10;3.37;;;;;;;2.82;100.00;100956.47;4823456;29;20050;-80
2022/12/28 03:41:06;;;;;;;5.77;2.90;;;;;;;2.87;100.00;100958.28;4817545;29;20117;-80
2022/12/28 03:43:42;;;;;;;8.93;2.93;;;;;;;2.80;100.00;100959.91;4810059;29;20046;-80
2022/12/28 03:46:17;;;;;;;4.73;3.00;;;;;;;2.96;100.00;100956.69;4837118;29;20050;-80
2022/12/28 03:48:45;;;;;;;5.20;2.93;;;;;;;2.94;100.00;100949.66;4821975;29;20133;-80
2022/12/28 03:51:13;;;;;;;5.40;2.77;;;;;;;2.94;100.00;100949.66;4837645;29;20058;-81
2022/12/28 03:53:42;;;;;;;4.20;2.80;;;;;;;2.81;100.00;100946.88;4806434;29;20520;-79
2022/12/28 03:56:17;;;;;;;4.90;3.40;;;;;;;2.90;100.00;100940.94;4837512;29;20050;-80
2022/12/28 03:58:45;;;;;;;6.83;2.77;;;;;;;2.95;100.00;100938.41;4809645;29;20042;-81
2022/12/28 04:01:12;;;;;;;6.23;2.90;;;;;;;2.96;100.00;100928.00;4813204;29;20049;-81
2022/12/28 04:03:39;;;;;;;8.77;3.03;;;;;;;2.95;100.00;100936.69;4819716;29;20046;-80
2022/12/28 04:06:06;;;;;;;6.67;2.83;;;;;;;2.95;100.00;100922.75;4808119;29;20054;-82
2022/12/28 04:08:33;;;;;;;7.10;3.73;;;;;;;2.87;100.00;100920.03;4803464;29;20046;-81
2022/12/28 04:11:00;;;;;;;7.00;2.80;;;;;;;2.81;100.00;100912.97;4793290;29;20046;-80
2022/12/28 04:13:31;;;;;;;6.93;3.90;;;;;;;2.87;100.00;100914.81;4827563;29;20049;-82
2022/12/28 04:16:00;;;;;;;9.53;3.20;;;;;;;2.85;100.00;100899.97;4838710;29;20069;-81
2022/12/28 04:18:27;;;;;;;5.30;3.73;;;;;;;2.81;100.00;100907.75;4836233;29;20071;-80
2022/12/28 04:20:53;;;;;;;8.57;3.87;;;;;;;2.77;100.00;100898.09;4822248;29;20549;-80
2022/12/28 04:23:20;;;;;;;9.03;3.63;;;;;;;2.85;100.00;100884.31;4808471;29;20119;-80
2022/12/28 04:26:01;;;;;;;7.17;3.53;;;;;;;2.79;100.00;100887.72;4818488;29;20075;-80
2022/12/28 04:28:28;;;;;;;5.50;3.43;;;;;;;2.71;100.00;100886.72;4809995;29;20047;-80
2022/12/28 04:30:55;;;;;;;5.47;3.10;;;;;;;2.80;100.00;100881.66;4831149;29;20038;-80
2022/12/28 04:33:22;;;;;;;5.93;3.80;;;;;;;2.73;100.00;100888.50;4828353;29;20106;-81
2022/12/28 04:35:49;;;;;;;5.17;3.43;;;;;;;2.91;100.00;100882.66;4823313;29;20095;-80
2022/12/28 04:38:16;;;;;;;5.90;2.97;;;;;;;2.80;100.00;100873.81;4820234;29;20045;-81
2022/12/28 04:40:43;;;;;;;6.57;3.13;;;;;;;2.72;100.00;100870.22;4789665;29;20039;-80
2022/12/28 04:43:10;;;;;;;9.27;3.40;;;;;;;2.81;100.00;100857.31;4835812;29;20453;-80
2022/12/28 04:45:37;;;;;;;7.93;3.37;;;;;;;2.81;100.00;100860.78;4826268;29;20048;-80
2022/12/28 04:48:04;;;;;;;6.73;2.80;;;;;;;2.82;100.00;100856.44;4805040;29;20047;-80
2022/12/28 04:50:31;;;;;;;5.63;3.43;;;;;;;2.77;100.00;100856.38;4837021;29;20042;-81
2022/12/28 04:52:58;;;;;;;6.90;3.17;;;;;;;2.79;100.00;100845.97;4822044;29;20042;-80
2022/12/28 04:55:25;;;;;;;7.83;3.63;;;;;;;2.74;100.00;100848.50;4806746;29;20433;-79
2022/12/28 04:57:59;;;;;;;4.72;2.92;;;;;;;2.72;100.00;100845.00;4813265;29;20049;-80
2022/12/28 05:00:26;;;;;;;6.83;3.33;;;;;;;2.68;100.00;100847.53;4821609;29;20038;-80
2022/12/28 05:02:52;;;;;;;4.53;2.47;;;;;;;2.65;100.00;100850.97;4818379;29;20068;-80
2022/12/28 05:05:19;;;;;;;6.33;3.50;;;;;;;2.70;100.00;100845.84;4820734;29;20046;-81
2022/12/28 05:07:46;;;;;;;7.67;3.57;;;;;;;2.68;100.00;100842.31;4826760;29;20126;-80
2022/12/28 05:10:12;;;;;;;5.73;3.47;;;;;;;2.69;100.00;100833.63;4820245;29;20088;-81
2022/12/28 05:12:39;;;;;;;7.17;3.60;;;;;;;2.69;100.00;100836.25;4805843;29;20050;-80
2022/12/28 05:15:06;;;;;;;5.13;3.10;;;;;;;2.70;100.00;100838.91;4808197;29;20049;-81
2022/12/28 05:17:33;;;;;;;9.30;3.53;;;;;;;2.64;100.00;100835.31;4834818;29;20038;-80
2022/12/28 05:19:59;;;;;;;7.27;3.00;;;;;;;2.62;100.00;100831.81;4819111;29;20066;-79
2022/12/28 05:22:26;;;;;;;7.83;2.80;;;;;;;2.55;100.00;100843.88;4820151;29;20058;-79
2022/12/28 05:24:53;;;;;;;7.00;3.33;;;;;;;2.64;100.00;100832.72;4810931;29;20047;-81
2022/12/28 05:27:20;;;;;;;5.47;3.60;;;;;;;2.75;100.00;100826.78;4823344;29;20047;-79
2022/12/28 05:29:46;;;;;;;7.00;3.70;;;;;;;2.71;100.00;100821.50;4801420;29;20462;-80
2022/12/28 05:32:13;;;;;;;8.63;3.60;;;;;;;2.70;100.00;100822.38;4821724;29;20046;-80
2022/12/28 05:34:40;;;;;;;5.60;3.30;;;;;;;2.88;100.00;100819.13;4819229;29;20078;-81
2022/12/28 05:37:07;;;;;;;6.23;3.50;;;;;;;2.81;100.00;100824.25;4810432;29;20046;-80
2022/12/28 05:39:34;;;;;;;6.30;3.10;;;;;;;2.72;100.00;100821.53;4835280;29;20105;-81
2022/12/28 05:42:01;;;;;;;5.80;3.17;;;;;;;2.67;100.00;100814.47;4817588;29;20462;-82
2022/12/28 05:44:28;;;;;;;6.07;2.70;;;;;;;2.76;100.00;100812.88;4805560;29;20051;-81
2022/12/28 05:46:55;;;;;;;5.00;2.80;;;;;;;2.84;100.00;100810.38;4821859;29;20047;-80
2022/12/28 05:49:22;;;;;;;7.57;3.93;;;;;;;2.87;100.00;100797.38;4811927;29;20530;-81
2022/12/28 05:51:52;;;;;;;3.87;2.80;;;;;;;2.83;100.00;100795.56;4821989;29;20046;-81
2022/12/28 05:54:19;;;;;;;4.37;2.53;;;;;;;2.74;100.00;100795.44;4807188;29;20043;-82
2022/12/28 05:56:49;;;;;;;5.73;2.93;;;;;;;2.84;100.00;100784.28;4819318;29;20428;-81
2022/12/28 05:59:15;;;;;;;3.97;2.43;;;;;;;2.89;100.00;100773.91;4806051;29;20046;-80
2022/12/28 06:01:43;;;;;;;4.50;2.80;;;;;;;2.82;100.00;100773.81;4820208;29;20076;-80
2022/12/28 06:04:17;;;;;;;4.43;2.53;;;;;;;2.81;100.00;100777.28;4816798;29;20070;-80
2022/12/28 06:06:45;;;;;;;4.57;3.10;;;;;;;2.83;100.00;100759.03;4819614;29;20046;-80
2022/12/28 06:09:12;;;;;;;6.43;2.87;;;;;;;2.85;100.00;100764.28;4834823;29;20054;-80
2022/12/28 06:11:39;;;;;;;3.50;2.80;;;;;;;2.88;100.00;100759.13;4834237;29;20045;-80
2022/12/28 06:14:06;;;;;;;7.10;2.73;;;;;;;2.89;100.00;100760.88;4810292;29;20050;-81
2022/12/28 06:16:36;;;;;;;2.90;2.40;;;;;;;2.88;100.00;100753.91;4819259;29;20845;-80
2022/12/28 06:19:08;;;;;;;4.70;2.70;;;;;;;2.96;100.00;100758.34;4812325;29;20054;-80
2022/12/28 06:21:37;;;;;;;5.87;2.77;;;;;;;3.04;100.00;100751.50;4841807;29;20034;-81
2022/12/28 06:24:04;;;;;;;7.83;2.73;;;;;;;3.02;100.00;100739.25;4826545;29;20404;-80
2022/12/28 06:26:33;;;;;;;3.97;2.30;;;;;;;3.05;100.00;100727.13;4814864;29;20048;-80
2022/12/28 06:29:00;;;;;;;5.10;2.80;;;;;;;3.08;100.00;100732.38;4812383;29;20103;-81
2022/12/28 06:31:31;;;;;;;4.43;3.03;;;;;;;3.07;100.00;100732.38;4828922;29;20417;-80
2022/12/28 06:33:58;;;;;;;3.83;2.50;;;;;;;3.11;100.00;100718.47;4821564;29;20107;-81
2022/12/28 06:36:31;;;;;;;5.67;2.60;;;;;;;3.09;100.00;100717.59;4823608;29;20133;-81
2022/12/28 06:38:59;;;;;;;4.67;2.27;;;;;;;3.13;100.00;100710.69;4836150;29;20038;-80
2022/12/28 06:41:27;;;;;;;4.60;2.97;;;;;;;3.21;100.00;100707.28;4802198;29;20056;-80
2022/12/28 06:43:54;;;;;;;3.10;2.20;;;;;;;3.13;100.00;100708.06;4820228;29;20042;-80
2022/12/28 06:46:23;;;;;;;5.90;2.50;;;;;;;3.12;100.00;100701.97;4792872;29;20113;-80
2022/12/28 06:48:49;;;;;;;4.60;2.50;;;;;;;3.18;100.00;100698.53;4820072;29;20106;-80
2022/12/28 06:51:21;;;;;;;5.50;2.57;;;;;;;3.18;100.00;100696.81;4840003;29;20129;-80
2022/12/28 06:53:49;;;;;;;4.80;2.37;;;;;;;3.09;100.00;100687.13;4823842;29;20133;-80
2022/12/28 06:56:18;;;;;;;7.93;3.13;;;;;;;3.25;100.00;100682.06;4821613;29;20079;-80
2022/12/28 06:58:46;;;;;;;4.03;2.40;;;;;;;3.32;100.00;100684.75;4820933;29;20409;-79
2022/12/28 07:01:14;;;;;;;5.07;2.53;;;;;;;3.29;100.00;100671.69;4822065;29;20536;-80
2022/12/28 07:03:45;;;;;;;4.57;2.70;;;;;;;3.25;100.00;100672.50;4820516;29;20115;-80
2022/12/28 07:06:14;;;;;;;7.30;3.40;;;;;;;3.28;100.00;100669.94;4893133;23;21038;-84
2022/12/28 07:08:41;;;;;;;6.80;2.27;;;;;;;3.23;100.00;100661.19;4846028;29;20043;-83
2022/12/28 07:11:10;;;;;;;4.33;2.50;;;;;;;3.29;100.00;100665.59;4826534;29;20049;-82
2022/12/28 07:13:37;;;;;;;4.10;2.30;;;;;;;3.27;100.00;100662.06;4812557;29;20050;-83
2022/12/28 07:16:14;;;;;;;6.93;2.97;;;;;;;3.34;100.00;100664.75;4827101;29;20064;-83
2022/12/28 07:18:41;;;;;;;4.63;2.60;;;;;;;3.32;100.00;100663.88;4809581;29;20124;-82
2022/12/28 07:21:29;;;;;;;4.77;2.27;;;;;;;3.24;100.00;100660.31;4810126;29;20050;-82
2022/12/28 07:23:56;;;;;;;4.70;2.07;;;;;;;3.09;100.00;100652.34;4810024;29;20053;-79
2022/12/28 07:26:25;;;;;;;4.57;2.07;;;;;;;3.31;100.00;100653.44;4810018;29;20049;-85
2022/12/28 07:28:53;;;;;;;4.27;2.50;;;;;;;3.26;100.00;100650.75;4806888;29;20133;-83
2022/12/28 07:31:22;;;;;;;3.53;2.20;;;;;;;3.29;100.00;100650.81;4818073;29;20705;-85
2022/12/28 07:33:50;;;;;;;4.77;2.27;;;;;;;3.34;100.00;100643.88;4822282;29;20043;-84
2022/12/28 07:36:19;;;;;;;5.17;2.67;;;;;;;3.36;100.00;100649.09;4809543;29;20071;-83
2022/12/28 07:38:46;;;;;;;5.07;2.63;;;;;;;3.35;100.00;100640.38;4814977;29;20522;-82
2022/12/28 07:41:14;;;;;;;4.57;2.20;;;;;;;3.35;100.00;100639.50;4808161;29;20050;-83
2022/12/28 07:43:41;;;;;;;6.37;2.27;;;;;;;3.46;100.00;100626.56;4788482;29;20445;-84
2022/12/28 07:46:10;;;;;;;5.00;2.30;;;;;;;3.46;100.00;100619.59;4824526;29;20084;-84
2022/12/28 07:48:38;;;;;;;2.63;1.90;;;;;;;3.37;100.00;100628.25;4796310;29;20042;-85
2022/12/28 07:51:13;;;;;;;2.73;2.00;;;;;;;3.39;100.00;100625.63;4809396;29;20042;-84
2022/12/28 07:53:42;;;;;;;5.63;3.77;;;;;;;3.39;100.00;100620.41;4830494;29;20050;-83
2022/12/28 07:56:10;;;;;;;4.87;1.90;;;;;;;3.44;100.00;100610.88;4821119;29;20065;-84
2022/12/28 07:58:37;;;;;;;4.30;2.20;;;;;;;3.43;100.00;100609.13;4803868;29;20046;-83
2022/12/28 08:01:11;;;;;;;7.23;2.17;;;;;;;3.46;100.00;100603.94;4802296;29;20065;-84
2022/12/28 08:03:40;;;;;;;6.23;2.37;;;;;;;3.43;100.00;100608.25;4810972;29;20062;-84
2022/12/28 08:06:08;;;;;;;5.30;2.33;;;;;;;3.39;100.00;100607.34;4807894;29;20049;-84
2022/12/28 08:08:35;;;;;;;10.43;3.03;;;;;;;3.46;100.00;100596.09;4823853;29;20106;-83
2022/12/28 08:11:07;;;;;;;4.03;2.20;;;;;;;3.48;100.00;100599.59;4826245;29;20492;-83
2022/12/28 08:13:35;;;;;;;3.43;2.40;;;;;;;3.45;100.00;100594.34;4810752;29;20049;-83
2022/12/28 08:16:02;;;;;;;3.80;2.13;;;;;;;3.42;100.00;100588.22;4825083;29;20057;-83
2022/12/28 08:18:30;;;;;;;7.27;3.40;;;;;;;3.48;100.00;100585.66;4811207;29;20658;-84
2022/12/28 08:21:17;;;;;;;4.87;2.23;;;;;;;3.53;100.00;100583.94;4810243;29;20438;-84
2022/12/28 08:23:44;;;;;;;4.23;2.13;;;;;;;3.51;100.00;100578.72;4819591;29;20046;-83
2022/12/28 08:26:13;;;;;;;3.77;2.27;;;;;;;3.56;100.00;100581.38;4813209;29;20050;-83
2022/12/28 08:28:40;;;;;;;4.33;2.10;;;;;;;3.56;100.00;100570.91;4807053;29;20052;-84
2022/12/28 08:31:12;;;;;;;3.23;2.47;;;;;;;3.58;100.00;100563.97;4800595;29;20044;-84
2022/12/28 08:33:39;;;;;;;3.73;2.10;;;;;;;3.61;100.00;100570.06;4819563;29;22517;-83
2022/12/28 08:36:07;;;;;;;5.27;2.30;;;;;;;3.63;100.00;100570.09;4817967;29;20635;-84
2022/12/28 08:38:35;;;;;;;5.27;2.30;;;;;;;3.71;100.00;100563.19;4791909;29;20390;-84
2022/12/28 08:41:04;;;;;;;4.07;2.67;;;;;;;3.75;100.00;100562.31;4823213;29;20045;-85
2022/12/28 08:43:32;;;;;;;10.10;6.43;;;;;;;3.75;100.00;100561.44;4808019;29;20046;-83
2022/12/28 08:46:00;;;;;;;7.20;3.50;;;;;;;3.73;100.00;100558.81;4808956;29;20053;-84
2022/12/28 08:48:28;;;;;;;5.57;2.57;;;;;;;3.75;100.00;100559.69;4808023;29;20046;-84
2022/12/28 08:51:00;;;;;;;8.07;2.80;;;;;;;3.78;100.00;100561.44;4825790;29;20038;-87
2022/12/28 08:53:27;;;;;;;3.77;2.47;;;;;;;3.79;100.00;100552.78;4811923;29;20056;-85
2022/12/28 08:55:53;;;;;;;3.93;2.60;;;;;;;3.78;100.00;100567.53;4824665;29;20041;-84
2022/12/28 08:58:20;;;;;;;5.57;2.80;;;;;;;3.80;100.00;100544.94;4810776;29;20046;-84
2022/12/28 09:00:47;;;;;;;6.57;3.30;;;;;;;3.78;100.00;100540.53;4812193;29;20075;-86
2022/12/28 09:03:14;;;;;;;6.50;3.07;;;;;;;3.79;100.00;100553.66;4811883;29;20042;-85
2022/12/28 09:05:40;;;;;;;7.53;3.30;;;;;;;3.76;100.00;100537.06;4810733;29;20529;-85
2022/12/28 09:08:07;;;;;;;5.67;3.57;;;;;;;3.78;100.00;100536.19;4804766;29;20049;-87
2022/12/28 09:10:34;;;;;;;5.30;3.10;;;;;;;3.85;100.00;100545.81;4811779;29;20453;-86
2022/12/28 09:13:01;;;;;;;4.30;2.60;;;;;;;3.76;100.00;100537.06;4810067;29;20057;-90
2022/12/28 09:15:28;;;;;;;6.60;3.40;;;;;;;3.81;100.00;100541.44;4827024;29;20062;-85
2022/12/28 09:17:55;;;;;;;8.90;3.87;;;;;;;3.89;100.00;100533.66;4811566;29;20057;-85
2022/12/28 09:20:22;;;;;;;5.70;3.43;;;;;;;3.81;100.00;100536.22;4810550;29;20242;-85
2022/12/28 09:22:49;;;;;;;7.70;5.93;;;;;;;3.92;100.00;100531.03;4808599;29;20452;-86
2022/12/28 09:25:15;;;;;;;5.77;3.30;;;;;;;3.91;100.00;100537.13;4811453;29;21702;-86
2022/12/28 09:27:42;;;;;;;8.80;4.70;;;;;;;3.89;100.00;100523.19;4814359;29;20088;-85
2022/12/28 09:30:09;;;;;;;6.47;4.63;;;;;;;3.94;100.00;100527.56;4823791;29;20050;-81
2022/12/28 09:32:36;;;;;;;4.27;3.30;;;;;;;3.95;100.00;100513.66;4810998;29;20750;-86
2022/12/28 09:35:02;;;;;;;5.27;3.67;;;;;;;4.05;100.00;100542.44;4825186;29;20512;-85
2022/12/28 09:37:29;;;;;;;6.47;3.60;;;;;;;3.99;100.00;100530.22;4809234;29;20052;-86
2022/12/28 09:39:56;;;;;;;7.90;5.10;;;;;;;4.02;100.00;100519.75;4808456;29;20484;-84
2022/12/28 09:42:28;;;;;;;8.00;6.27;;;;;;;4.09;100.00;100491.91;4813747;29;20053;-85
2022/12/28 09:45:07;;;;;;;10.97;6.53;;;;;;;4.11;100.00;100514.56;4803490;29;20110;-85
2022/12/28 09:47:46;;;;;;;7.20;4.30;;;;;;;4.02;100.00;100513.66;4819997;29;20050;-85
2022/12/28 09:50:16;;;;;;;5.63;3.80;;;;;;;4.03;100.00;100518.88;4802550;29;20050;-84
2022/12/28 09:52:56;;;;;;;16.47;5.07;;;;;;;4.03;100.00;100510.16;4803633;29;20440;-86
2022/12/28 09:55:23;;;;;;;15.23;4.17;;;;;;;4.11;100.00;100487.53;4820212;29;20532;-85
2022/12/28 09:57:55;;;;;;;6.63;4.10;;;;;;;4.18;100.00;100486.69;4826487;29;20042;-84
2022/12/28 10:00:22;;;;;;;5.97;4.07;;;;;;;4.18;100.00;100484.94;4809464;29;20447;-84
2022/12/28 10:03:03;;;;;;;6.17;4.10;;;;;;;4.20;100.00;100491.06;4829318;29;20496;-85
2022/12/28 10:05:29;;;;;;;7.60;4.17;;;;;;;4.19;100.00;100497.16;4811828;29;20061;-84
2022/12/28 10:07:57;;;;;;;7.67;5.07;;;;;;;4.26;100.00;100499.78;4808990;29;20045;-83
2022/12/28 10:10:25;;;;;;;8.80;4.27;;;;;;;4.13;100.00;100478.84;4826544;29;20056;-84
2022/12/28 10:12:53;;;;;;;7.27;4.80;;;;;;;4.28;100.00;100492.81;4809265;29;20541;-84
2022/12/28 10:15:21;;;;;;;7.80;4.47;;;;;;;4.29;100.00;100489.31;4817176;29;20088;-85
2022/12/28 10:17:48;;;;;;;7.33;4.33;;;;;;;4.21;100.00;100477.13;4810275;29;20053;-84
2022/12/28 10:20:17;;;;;;;7.97;4.10;;;;;;;4.29;100.00;100471.94;4840357;29;20079;-86
2022/12/28 10:22:49;;;;;;;6.37;4.27;;;;;;;4.38;100.00;100473.69;4814689;29;20044;-85
2022/12/28 10:25:18;;;;;;;8.07;4.00;;;;;;;4.32;100.00;100479.75;4823907;29;20050;-83
2022/12/28 10:27:45;;;;;;;12.77;4.50;;;;;;;4.33;100.00;100467.56;4814023;29;20084;-83
2022/12/28 10:30:16;;;;;;;6.87;3.80;;;;;;;4.32;100.00;100465.81;4822668;29;20038;-84
2022/12/28 10:32:55;;;;;;;6.40;4.30;;;;;;;4.38;100.00;100458.00;4826215;29;20046;-84
2022/12/28 10:35:32;;;;;;;6.77;3.83;;;;;;;4.53;100.00;100456.22;4839479;29;20046;-84
2022/12/28 10:38:05;;;;;;;5.37;3.80;;;;;;;4.53;100.00;100455.38;4827242;29;20500;-85
2022/12/28 10:40:34;;;;;;;5.60;3.63;;;;;;;4.53;100.00;100451.00;4809465;29;20093;-84
2022/12/28 10:43:01;;;;;;;12.70;5.03;;;;;;;4.59;100.00;100449.28;4829825;29;20121;-85
2022/12/28 10:45:39;;;;;;;7.23;4.20;;;;;;;4.58;100.00;100432.72;4800492;29;20162;-88
2022/12/28 10:48:14;;;;;;;9.57;5.17;;;;;;;4.57;100.00;100427.47;4809973;29;20121;-87
2022/12/28 10:50:55;;;;;;;5.80;3.50;;;;;;;4.57;100.00;100428.34;4824573;29;20042;-84
2022/12/28 10:53:29;;;;;;;7.20;3.40;;;;;;;4.61;100.00;100430.06;4811845;29;20034;-85
2022/12/28 10:56:00;;;;;;;6.53;3.65;;;;;;;4.66;100.00;100430.09;4825864;29;20050;-87
2022/12/28 10:58:27;;;;;;;4.60;3.20;;;;;;;4.69;100.00;100424.84;4812633;29;20050;-85
2022/12/28 11:01:12;;;;;;;6.37;3.00;;;;;;;4.79;100.00;100418.72;4808575;29;20106;-84
2022/12/28 11:03:42;;;;;;;4.90;3.20;;;;;;;4.83;100.00;100414.38;4823628;29;20381;-83
2022/12/28 11:06:16;;;;;;;6.73;3.73;;;;;;;4.88;100.00;100410.03;4824461;29;20041;-84
2022/12/28 11:09:14;;;;;;;6.87;3.37;;;;;;;4.89;100.00;100407.41;4806008;29;20152;-84
2022/12/28 11:11:42;;;;;;;6.93;3.53;;;;;;;4.91;100.00;100408.25;4836644;29;20125;-83
2022/12/28 11:14:16;;;;;;;5.83;3.40;;;;;;;4.97;100.00;100392.56;4806834;29;20047;-84
2022/12/28 11:16:43;;;;;;;6.33;3.40;;;;;;;4.95;100.00;100394.28;4820581;29;20046;-84
2022/12/28 11:19:11;;;;;;;5.77;3.40;;;;;;;4.96;100.00;100389.91;4825460;29;20046;-84
2022/12/28 11:21:40;;;;;;;7.57;3.70;;;;;;;5.00;100.00;100379.44;4806711;29;20058;-86
2022/12/28 11:24:11;;;;;;;6.27;4.03;;;;;;;4.98;100.00;100382.94;4825301;29;20150;-85
2022/12/28 11:26:42;;;;;;;7.17;4.50;;;;;;;5.04;100.00;100394.28;4818927;29;20042;-84
2022/12/28 11:29:10;;;;;;;4.90;3.07;;;;;;;5.02;100.00;100385.53;4793166;29;20428;-83
2022/12/28 11:31:43;;;;;;;5.33;3.43;;;;;;;5.09;100.00;100382.03;4809212;29;20050;-83
2022/12/28 11:34:24;;;;;;;7.27;3.70;;;;;;;5.04;100.00;100381.19;4792615;29;20098;-83
2022/12/28 11:36:51;;;;;;;7.23;4.27;;;;;;;5.10;100.00;100380.28;4824741;29;20102;-82
2022/12/28 11:39:24;;;;;;;12.67;8.17;;;;;;;5.21;100.00;100380.25;4807714;29;20038;-82
2022/12/28 11:41:58;;;;;;;4.93;3.10;;;;;;;5.20;100.00;100368.03;4808858;29;20075;-82
2022/12/28 11:44:45;;;;;;;6.20;3.85;;;;;;;5.24;100.00;100368.03;4816936;29;20098;-83
2022/12/28 11:47:14;;;;;;;7.57;4.07;;;;;;;5.27;100.00;100369.75;4802853;29;20054;-82
2022/12/28 11:49:43;;;;;;;4.60;3.83;;;;;;;5.24;100.00;100364.53;4807245;29;20045;-83
2022/12/28 11:52:33;;;;;;;5.07;3.20;;;;;;;5.35;100.00;100360.13;4822708;29;20809;-82
2022/12/28 11:55:25;;;;;;;4.27;3.03;;;;;;;5.39;100.00;100361.88;4822501;29;20046;-83
2022/12/28 11:57:53;;;;;;;6.30;3.97;;;;;;;5.43;100.00;100357.47;4820301;29;20488;-83
2022/12/28 12:00:19;;;;;;;5.00;3.30;;;;;;;5.54;100.00;100351.28;4822909;29;20465;-83
2022/12/28 12:02:56;;;;;;;6.53;3.60;;;;;;;5.61;100.00;100358.25;4808538;29;20129;-84
2022/12/28 12:05:36;;;;;;;5.53;4.03;;;;;;;5.66;100.00;100350.38;4822624;29;20049;-83
2022/12/28 12:08:08;;;;;;;4.97;2.90;;;;;;;5.72;100.00;100352.06;4820864;29;20585;-84